Time;durP1;ratioP1;P1;durP2;ratioP2;P2;SDS_P1;SDS_P2;PMS_P1;PMS_P2;Temp;Humidity;BMP_temperature;BMP_pressure;BME280_temperature;BME280_humidity;BME280_pressure;Samples;Min_cycle;Max_cycle;Signal;HPM_P1;HPM_P2
2023/06/15 00:00:45;;;;;;;3.38;1.20;;;;;;;;;;5027461;28;20120;-75
2023/06/15 00:03:11;;;;;;;2.45;1.20;;;;;;;;;;5027854;28;20041;-75
2023/06/15 00:05:37;;;;;;;2.35;0.90;;;;;;;;;;5028030;28;20033;-75
2023/06/15 00:08:03;;;;;;;2.58;1.20;;;;;;;;;;5028372;28;20044;-75
2023/06/15 00:10:29;;;;;;;1.35;1.00;;;;;;;;;;5026707;28;20400;-75
2023/06/15 00:12:55;;;;;;;1.50;1.00;;;;;;;;;;5028146;28;20393;-75
2023/06/15 00:15:21;;;;;;;1.35;1.02;;;;;;;;;;5013365;28;20021;-75
2023/06/15 00:17:48;;;;;;;2.83;1.10;;;;;;;;;;5028021;28;20021;-76
2023/06/15 00:20:14;;;;;;;2.92;1.30;;;;;;;;;;5009104;28;20095;-75
2023/06/15 00:22:41;;;;;;;1.10;1.00;;;;;;;;;;5023622;28;20026;-75
2023/06/15 00:25:07;;;;;;;1.20;1.10;;;;;;;;;;5012324;28;20029;-75
2023/06/15 00:27:36;;;;;;;3.20;1.13;;;;;;;;;;5011569;28;20038;-75
2023/06/15 00:30:04;;;;;;;2.60;1.40;;;;;;;;;;5016318;28;20465;-75
2023/06/15 00:32:30;;;;;;;1.52;1.10;;;;;;;;;;5013087;28;20018;-75
2023/06/15 00:34:56;;;;;;;1.73;1.00;;;;;;;;;;5011832;28;20081;-75
2023/06/15 00:37:21;;;;;;;0.93;0.90;;;;;;;;;;5011816;28;20489;-75
2023/06/15 00:39:47;;;;;;;0.80;0.80;;;;;;;;;;5011655;28;20022;-75
2023/06/15 00:42:13;;;;;;;1.30;1.00;;;;;;;;;;5030226;28;20029;-75
2023/06/15 00:44:39;;;;;;;1.75;1.23;;;;;;;;;;5031154;28;20168;-75
2023/06/15 00:47:06;;;;;;;3.10;1.02;;;;;;;;;;5031665;28;20026;-75
2023/06/15 00:49:32;;;;;;;1.40;0.88;;;;;;;;;;5012304;28;20046;-75
2023/06/15 00:51:58;;;;;;;2.35;1.00;;;;;;;;;;5022195;28;20036;-75
2023/06/15 00:54:24;;;;;;;1.95;1.17;;;;;;;;;;5012301;28;20022;-75
2023/06/15 00:56:51;;;;;;;1.38;1.00;;;;;;;;;;5011620;28;20018;-75
2023/06/15 00:59:18;;;;;;;2.22;1.35;;;;;;;;;;5010917;28;20034;-75
2023/06/15 01:01:54;;;;;;;1.05;0.93;;;;;;;;;;5013509;28;20040;-75
2023/06/15 01:04:24;;;;;;;1.55;1.20;;;;;;;;;;5016897;28;20045;-75
2023/06/15 01:06:52;;;;;;;3.13;1.30;;;;;;;;;;5009773;28;20113;-75
2023/06/15 01:09:20;;;;;;;1.70;1.45;;;;;;;;;;5011206;28;20061;-75
2023/06/15 01:11:46;;;;;;;1.20;1.10;;;;;;;;;;5010959;28;20025;-74
2023/06/15 01:14:12;;;;;;;0.95;0.93;;;;;;;;;;5025618;28;20038;-75
2023/06/15 01:16:41;;;;;;;1.77;1.15;;;;;;;;;;5027804;28;20365;-75
2023/06/15 01:19:13;;;;;;;2.65;1.15;;;;;;;;;;5022606;28;20050;-75
2023/06/15 01:21:39;;;;;;;2.40;1.10;;;;;;;;;;5016482;28;20498;-75
2023/06/15 01:24:18;;;;;;;1.20;1.10;;;;;;;;;;5025075;28;20515;-75
2023/06/15 01:26:46;;;;;;;1.80;0.82;;;;;;;;;;5030425;28;20026;-76
2023/06/15 01:29:12;;;;;;;0.95;0.90;;;;;;;;;;5030798;28;20030;-74
2023/06/15 01:31:40;;;;;;;1.27;0.95;;;;;;;;;;5030459;28;20029;-75
2023/06/15 01:34:06;;;;;;;3.72;2.03;;;;;;;;;;5027212;28;20036;-75
2023/06/15 01:36:32;;;;;;;1.17;1.00;;;;;;;;;;5012369;28;20346;-75
2023/06/15 01:38:58;;;;;;;2.90;1.27;;;;;;;;;;5016022;28;20033;-75
2023/06/15 01:41:25;;;;;;;1.88;1.13;;;;;;;;;;5030482;28;20025;-75
2023/06/15 01:43:52;;;;;;;1.50;1.17;;;;;;;;;;5027938;28;20032;-75
2023/06/15 01:46:19;;;;;;;1.08;0.75;;;;;;;;;;5023904;28;20034;-75
2023/06/15 01:48:45;;;;;;;1.40;1.10;;;;;;;;;;5010612;28;20030;-75
2023/06/15 01:51:11;;;;;;;0.88;0.75;;;;;;;;;;5010357;28;20443;-75
2023/06/15 01:53:37;;;;;;;1.55;1.27;;;;;;;;;;5011088;28;20511;-75
2023/06/15 01:56:03;;;;;;;1.33;1.10;;;;;;;;;;5022704;28;20392;-75
2023/06/15 01:58:29;;;;;;;1.27;1.05;;;;;;;;;;5010012;28;20126;-75
2023/06/15 02:00:55;;;;;;;2.22;1.10;;;;;;;;;;5010426;28;20049;-75
2023/06/15 02:03:21;;;;;;;0.80;0.80;;;;;;;;;;5010013;28;20060;-75
2023/06/15 02:05:47;;;;;;;3.00;1.20;;;;;;;;;;5019695;28;20041;-76
2023/06/15 02:08:13;;;;;;;3.60;1.30;;;;;;;;;;5017595;28;20030;-76
2023/06/15 02:10:40;;;;;;;1.40;1.10;;;;;;;;;;5009986;28;20084;-75
2023/06/15 02:13:11;;;;;;;1.60;1.00;;;;;;;;;;4997236;28;20034;-75
2023/06/15 02:15:37;;;;;;;1.50;0.80;;;;;;;;;;5022966;28;20030;-75
2023/06/15 02:18:07;;;;;;;1.17;1.00;;;;;;;;;;5017238;28;20037;-75
2023/06/15 02:20:33;;;;;;;2.30;1.13;;;;;;;;;;5009834;28;20113;-75
2023/06/15 02:22:59;;;;;;;2.92;1.10;;;;;;;;;;5017554;28;20109;-75
2023/06/15 02:25:27;;;;;;;1.50;1.10;;;;;;;;;;5009664;28;20166;-75
2023/06/15 02:27:53;;;;;;;1.15;0.95;;;;;;;;;;5027576;28;20091;-76
2023/06/15 02:30:19;;;;;;;2.35;1.00;;;;;;;;;;5017962;28;20243;-76
2023/06/15 02:32:48;;;;;;;1.23;1.00;;;;;;;;;;5029643;28;20445;-75
2023/06/15 02:35:14;;;;;;;1.90;0.95;;;;;;;;;;5029653;28;20022;-75
2023/06/15 02:37:40;;;;;;;1.52;1.00;;;;;;;;;;5012969;28;20037;-75
2023/06/15 02:40:08;;;;;;;0.95;0.90;;;;;;;;;;5029398;28;20044;-75
2023/06/15 02:42:35;;;;;;;1.20;1.10;;;;;;;;;;5028809;28;20029;-75
2023/06/15 02:45:02;;;;;;;0.93;0.80;;;;;;;;;;5029287;28;20031;-75
2023/06/15 02:47:28;;;;;;;1.75;1.00;;;;;;;;;;5019204;28;20040;-76
2023/06/15 02:49:55;;;;;;;1.20;1.00;;;;;;;;;;5009701;28;20034;-75
2023/06/15 02:52:21;;;;;;;1.30;1.10;;;;;;;;;;5009544;28;20043;-75
2023/06/15 02:54:47;;;;;;;1.48;1.27;;;;;;;;;;5009126;28;20088;-75
2023/06/15 02:57:13;;;;;;;1.15;1.00;;;;;;;;;;5009294;28;20487;-75
2023/06/15 02:59:40;;;;;;;1.08;0.90;;;;;;;;;;5016555;28;20579;-75
2023/06/15 03:02:06;;;;;;;1.50;1.00;;;;;;;;;;5013811;28;20021;-75
2023/06/15 03:04:37;;;;;;;2.60;1.00;;;;;;;;;;5019380;28;20525;-75
2023/06/15 03:07:03;;;;;;;1.33;1.05;;;;;;;;;;5028891;28;20043;-75
2023/06/15 03:09:30;;;;;;;1.70;1.10;;;;;;;;;;5017591;28;20032;-75
2023/06/15 03:11:55;;;;;;;1.00;0.80;;;;;;;;;;5008998;28;20037;-75
2023/06/15 03:14:21;;;;;;;0.85;0.85;;;;;;;;;;5008969;28;20041;-75
2023/06/15 03:16:48;;;;;;;1.27;1.00;;;;;;;;;;5024512;28;20032;-75
2023/06/15 03:19:17;;;;;;;4.88;1.15;;;;;;;;;;5017700;28;20045;-75
2023/06/15 03:21:43;;;;;;;1.10;0.90;;;;;;;;;;5024649;28;20405;-75
2023/06/15 03:24:10;;;;;;;1.52;0.90;;;;;;;;;;5008618;28;20495;-75
2023/06/15 03:26:40;;;;;;;1.95;0.88;;;;;;;;;;5008934;28;20038;-75
2023/06/15 03:29:09;;;;;;;1.27;0.70;;;;;;;;;;5012536;28;20052;-74
2023/06/15 03:31:40;;;;;;;0.80;0.80;;;;;;;;;;5028497;28;20059;-75
2023/06/15 03:34:07;;;;;;;1.25;1.08;;;;;;;;;;5028848;28;20022;-74
2023/06/15 03:36:33;;;;;;;1.23;1.05;;;;;;;;;;5027967;28;20035;-74
2023/06/15 03:38:59;;;;;;;1.15;0.77;;;;;;;;;;5015417;28;21323;-74
2023/06/15 03:41:30;;;;;;;1.20;0.90;;;;;;;;;;5011229;28;20033;-75
2023/06/15 03:43:56;;;;;;;;;;;;;;;;;;5010233;28;20052;-75
2023/06/15 03:46:22;;;;;;;1.27;1.05;;;;;;;;;;5008803;28;19905;-75
2023/06/15 03:48:51;;;;;;;1.30;1.13;;;;;;;;;;5007960;28;20025;-76
2023/06/15 03:51:17;;;;;;;6.43;1.35;;;;;;;;;;5021734;28;20053;-74
2023/06/15 03:53:43;;;;;;;1.38;0.90;;;;;;;;;;5027960;28;20040;-75
2023/06/15 03:56:09;;;;;;;2.03;1.10;;;;;;;;;;5027992;28;20025;-75
2023/06/15 03:58:35;;;;;;;1.80;1.17;;;;;;;;;;5032204;28;20538;-75
2023/06/15 04:01:04;;;;;;;1.55;0.95;;;;;;;;;;5025395;28;20442;-75
2023/06/15 04:03:34;;;;;;;1.92;1.10;;;;;;;;;;5025627;28;20025;-75
2023/06/15 04:06:01;;;;;;;1.40;0.90;;;;;;;;;;5032279;28;20396;-76
2023/06/15 04:08:27;;;;;;;1.38;1.00;;;;;;;;;;5032125;28;20518;-75
2023/06/15 04:10:56;;;;;;;1.05;0.90;;;;;;;;;;5023095;28;20489;-75
2023/06/15 04:13:23;;;;;;;0.90;0.90;;;;;;;;;;5029264;28;20040;-75
2023/06/15 04:15:49;;;;;;;0.88;0.88;;;;;;;;;;5032023;28;20037;-75
2023/06/15 04:18:14;;;;;;;2.13;1.05;;;;;;;;;;5017333;28;20034;-74
2023/06/15 04:20:46;;;;;;;1.35;1.05;;;;;;;;;;5014350;28;20034;-74
2023/06/15 04:23:12;;;;;;;0.80;0.80;;;;;;;;;;5020332;28;20021;-74
2023/06/15 04:25:40;;;;;;;1.20;1.13;;;;;;;;;;5011833;28;20037;-76
2023/06/15 04:28:10;;;;;;;0.90;0.82;;;;;;;;;;5012215;28;20030;-75
2023/06/15 04:30:37;;;;;;;0.77;0.77;;;;;;;;;;5017463;28;20506;-74
2023/06/15 04:33:04;;;;;;;1.90;1.02;;;;;;;;;;5027701;28;20037;-75
2023/06/15 04:35:34;;;;;;;1.17;1.00;;;;;;;;;;5011508;28;20026;-75
2023/06/15 04:38:04;;;;;;;1.60;1.20;;;;;;;;;;4996722;28;20053;-76
2023/06/15 04:40:32;;;;;;;3.13;1.02;;;;;;;;;;5020816;28;20104;-76
2023/06/15 04:42:58;;;;;;;1.63;1.08;;;;;;;;;;5019146;28;20052;-76
2023/06/15 04:45:28;;;;;;;1.30;1.17;;;;;;;;;;5022378;28;20111;-76
2023/06/15 04:47:54;;;;;;;2.15;1.13;;;;;;;;;;5029781;28;20061;-76
2023/06/15 04:50:21;;;;;;;2.00;1.17;;;;;;;;;;5028095;28;20044;-79
2023/06/15 04:52:47;;;;;;;1.25;1.10;;;;;;;;;;5022077;28;20038;-75
2023/06/15 04:55:13;;;;;;;2.10;1.40;;;;;;;;;;5025036;28;20018;-76
2023/06/15 04:57:39;;;;;;;1.00;0.88;;;;;;;;;;5025717;28;20129;-74
2023/06/15 05:00:10;;;;;;;1.92;0.98;;;;;;;;;;5023469;28;20033;-81
2023/06/15 05:02:36;;;;;;;2.58;1.85;;;;;;;;;;5030827;28;20083;-81
2023/06/15 05:05:02;;;;;;;1.42;1.10;;;;;;;;;;5028339;28;20033;-79
2023/06/15 05:07:28;;;;;;;1.20;0.98;;;;;;;;;;5019925;28;20420;-76
2023/06/15 05:10:04;;;;;;;1.58;1.10;;;;;;;;;;5022363;28;20023;-76
2023/06/15 05:12:30;;;;;;;1.42;1.10;;;;;;;;;;5007938;28;20437;-76
2023/06/15 05:14:56;;;;;;;1.52;1.20;;;;;;;;;;5011275;28;20586;-76
2023/06/15 05:17:22;;;;;;;0.77;0.77;;;;;;;;;;5031146;28;20033;-76
2023/06/15 05:19:48;;;;;;;0.80;0.75;;;;;;;;;;5030697;28;20045;-76
2023/06/15 05:22:14;;;;;;;1.48;1.38;;;;;;;;;;5028201;28;20033;-76
2023/06/15 05:24:40;;;;;;;2.28;1.10;;;;;;;;;;5016479;28;20022;-76
2023/06/15 05:27:06;;;;;;;1.13;1.02;;;;;;;;;;5016694;28;20021;-76
2023/06/15 05:29:32;;;;;;;1.15;0.98;;;;;;;;;;5030489;28;20029;-75
2023/06/15 05:32:01;;;;;;;1.00;0.90;;;;;;;;;;5032840;28;20025;-75
2023/06/15 05:34:27;;;;;;;1.40;1.00;;;;;;;;;;5016611;28;20083;-75
2023/06/15 05:36:53;;;;;;;1.92;1.10;;;;;;;;;;5010976;28;20029;-76
2023/06/15 05:39:37;;;;;;;2.17;1.30;;;;;;;;;;5010242;28;20072;-76
2023/06/15 05:42:07;;;;;;;1.10;0.95;;;;;;;;;;5011843;28;20464;-75
2023/06/15 05:44:32;;;;;;;1.67;1.00;;;;;;;;;;5019797;28;20110;-74
2023/06/15 05:46:58;;;;;;;2.33;1.10;;;;;;;;;;5022629;28;20045;-75
2023/06/15 05:49:24;;;;;;;2.20;1.20;;;;;;;;;;5021072;28;20041;-75
2023/06/15 05:51:50;;;;;;;1.23;0.80;;;;;;;;;;5018374;28;20022;-75
2023/06/15 05:54:16;;;;;;;2.08;1.30;;;;;;;;;;5025636;28;20503;-75
2023/06/15 05:56:42;;;;;;;2.05;1.50;;;;;;;;;;5025776;28;20401;-75
2023/06/15 05:59:08;;;;;;;2.42;1.48;;;;;;;;;;5014872;28;20041;-75
2023/06/15 06:01:34;;;;;;;1.60;1.10;;;;;;;;;;5020910;28;20052;-75
2023/06/15 06:04:00;;;;;;;1.77;1.15;;;;;;;;;;5019479;28;20017;-75
2023/06/15 06:06:26;;;;;;;1.63;1.02;;;;;;;;;;5027282;28;20030;-76
2023/06/15 06:08:52;;;;;;;1.77;1.10;;;;;;;;;;5009857;28;20030;-75
2023/06/15 06:11:18;;;;;;;1.08;1.00;;;;;;;;;;5016828;28;20017;-75
2023/06/15 06:13:44;;;;;;;2.10;1.33;;;;;;;;;;5012177;28;20022;-76
2023/06/15 06:16:10;;;;;;;1.45;1.10;;;;;;;;;;5023959;28;20021;-76
2023/06/15 06:18:36;;;;;;;1.83;1.25;;;;;;;;;;5015093;28;20053;-76
2023/06/15 06:21:02;;;;;;;1.90;1.00;;;;;;;;;;5019824;28;20029;-76
2023/06/15 06:23:28;;;;;;;1.35;1.00;;;;;;;;;;5029774;28;20430;-75
2023/06/15 06:25:54;;;;;;;1.35;1.10;;;;;;;;;;5030158;28;20037;-75
2023/06/15 06:28:20;;;;;;;0.88;0.88;;;;;;;;;;5025745;28;20038;-75
2023/06/15 06:30:46;;;;;;;1.90;1.05;;;;;;;;;;5018623;28;20030;-75
2023/06/15 06:33:11;;;;;;;1.60;1.05;;;;;;;;;;5016018;28;20034;-84
2023/06/15 06:35:37;;;;;;;2.15;1.20;;;;;;;;;;5028546;28;20583;-86
2023/06/15 06:38:03;;;;;;;1.25;1.08;;;;;;;;;;5021614;28;20530;-81
2023/06/15 06:40:30;;;;;;;2.20;1.20;;;;;;;;;;5027061;28;20036;-82
2023/06/15 06:42:56;;;;;;;2.47;1.42;;;;;;;;;;5014323;28;20025;-82
2023/06/15 06:45:22;;;;;;;0.85;0.80;;;;;;;;;;5017327;28;20026;-84
2023/06/15 06:47:48;;;;;;;1.20;1.10;;;;;;;;;;5009106;28;20413;-80
2023/06/15 06:50:14;;;;;;;1.33;0.90;;;;;;;;;;5010891;28;20037;-81
2023/06/15 06:52:42;;;;;;;2.20;1.25;;;;;;;;;;5013360;28;20018;-79
2023/06/15 06:55:08;;;;;;;2.30;1.38;;;;;;;;;;5011083;28;20026;-82
2023/06/15 06:57:34;;;;;;;2.65;1.58;;;;;;;;;;5028555;28;20026;-78
2023/06/15 07:00:00;;;;;;;2.50;1.35;;;;;;;;;;5028990;28;20480;-78
2023/06/15 07:02:26;;;;;;;1.40;0.95;;;;;;;;;;5014798;28;20093;-75
2023/06/15 07:04:55;;;;;;;1.63;1.13;;;;;;;;;;5019478;28;20432;-72
2023/06/15 07:07:21;;;;;;;2.25;1.13;;;;;;;;;;5028868;28;20032;-72
2023/06/15 07:09:47;;;;;;;1.13;1.00;;;;;;;;;;5024665;28;20381;-72
2023/06/15 07:12:13;;;;;;;1.42;1.17;;;;;;;;;;5014553;28;20022;-73
2023/06/15 07:14:39;;;;;;;1.50;0.90;;;;;;;;;;5019491;28;20432;-72
2023/06/15 07:17:05;;;;;;;1.83;1.20;;;;;;;;;;5018939;28;20022;-72
2023/06/15 07:19:31;;;;;;;1.50;1.15;;;;;;;;;;5008764;28;20080;-72
2023/06/15 07:21:57;;;;;;;1.02;0.93;;;;;;;;;;5015656;28;20026;-73
2023/06/15 07:24:32;;;;;;;1.83;1.23;;;;;;;;;;5008960;28;20030;-73
2023/06/15 07:26:58;;;;;;;1.63;1.17;;;;;;;;;;5009002;28;20121;-73
2023/06/15 07:29:25;;;;;;;0.90;0.77;;;;;;;;;;5012015;28;20072;-72
2023/06/15 07:31:51;;;;;;;1.55;1.23;;;;;;;;;;5007946;28;20113;-72
2023/06/15 07:34:17;;;;;;;6.35;1.70;;;;;;;;;;5008545;28;20409;-72
2023/06/15 07:36:43;;;;;;;1.10;1.00;;;;;;;;;;5008233;28;20389;-73
2023/06/15 07:39:09;;;;;;;2.42;1.10;;;;;;;;;;5027750;28;20037;-72
2023/06/15 07:41:34;;;;;;;1.92;1.02;;;;;;;;;;5019826;28;20260;-72
2023/06/15 07:44:01;;;;;;;3.47;1.50;;;;;;;;;;5008615;28;20488;-72
2023/06/15 07:46:26;;;;;;;1.75;1.27;;;;;;;;;;5008645;28;20026;-72
2023/06/15 07:48:52;;;;;;;1.80;1.48;;;;;;;;;;5007909;28;20168;-73
2023/06/15 07:51:18;;;;;;;1.38;1.05;;;;;;;;;;5011490;28;20029;-73
2023/06/15 07:53:46;;;;;;;1.40;1.20;;;;;;;;;;5028200;28;20024;-73
2023/06/15 07:56:12;;;;;;;1.40;1.20;;;;;;;;;;5027972;28;20018;-73
2023/06/15 07:58:38;;;;;;;1.75;1.10;;;;;;;;;;5028223;28;20043;-72
2023/06/15 08:01:04;;;;;;;1.30;1.10;;;;;;;;;;5028211;28;20431;-72
2023/06/15 08:03:32;;;;;;;1.70;1.13;;;;;;;;;;5025873;28;20029;-72
2023/06/15 08:05:58;;;;;;;2.05;1.17;;;;;;;;;;5028125;28;20040;-73
2023/06/15 08:08:24;;;;;;;1.70;1.05;;;;;;;;;;5028104;28;20026;-72
2023/06/15 08:10:50;;;;;;;3.63;1.70;;;;;;;;;;5027684;28;20052;-73
2023/06/15 08:13:18;;;;;;;1.20;1.05;;;;;;;;;;5024912;28;20014;-73
2023/06/15 08:15:44;;;;;;;1.15;1.05;;;;;;;;;;5015496;28;20133;-73
2023/06/15 08:18:10;;;;;;;1.48;1.00;;;;;;;;;;5027758;28;20037;-73
2023/06/15 08:20:36;;;;;;;1.48;1.15;;;;;;;;;;5027802;28;20030;-73
2023/06/15 08:23:02;;;;;;;1.13;0.90;;;;;;;;;;5022267;28;20040;-74
2023/06/15 08:25:28;;;;;;;1.38;1.00;;;;;;;;;;5008622;28;20038;-73
2023/06/15 08:27:54;;;;;;;1.00;0.93;;;;;;;;;;5015811;28;20045;-73
2023/06/15 08:30:20;;;;;;;1.45;1.10;;;;;;;;;;5021446;28;20017;-73
2023/06/15 08:32:46;;;;;;;1.17;1.00;;;;;;;;;;5022837;28;20498;-73
2023/06/15 08:35:12;;;;;;;1.05;0.90;;;;;;;;;;5018222;28;20026;-72
2023/06/15 08:37:38;;;;;;;1.88;1.45;;;;;;;;;;5013739;28;20030;-72
2023/06/15 08:40:07;;;;;;;1.27;1.15;;;;;;;;;;5026763;28;20034;-72
2023/06/15 08:42:33;;;;;;;2.25;1.10;;;;;;;;;;5029020;28;20104;-73
2023/06/15 08:44:59;;;;;;;0.95;0.90;;;;;;;;;;5031295;28;20044;-73
2023/06/15 08:47:26;;;;;;;5.28;0.90;;;;;;;;;;5031820;28;20022;-73
2023/06/15 08:49:53;;;;;;;1.67;1.20;;;;;;;;;;5027531;28;20042;-72
2023/06/15 08:52:23;;;;;;;1.80;1.30;;;;;;;;;;5017444;28;20086;-73
2023/06/15 08:54:53;;;;;;;1.23;0.98;;;;;;;;;;5011310;28;20029;-73
2023/06/15 08:57:20;;;;;;;1.15;1.05;;;;;;;;;;5011887;28;20048;-74
2023/06/15 08:59:46;;;;;;;2.22;1.10;;;;;;;;;;5017373;28;20057;-73
2023/06/15 09:02:20;;;;;;;1.02;0.95;;;;;;;;;;5031287;28;20033;-74
2023/06/15 09:04:46;;;;;;;1.15;1.02;;;;;;;;;;5031081;28;20026;-73
2023/06/15 09:07:13;;;;;;;0.90;0.90;;;;;;;;;;5030955;28;20022;-73
2023/06/15 09:09:39;;;;;;;3.88;1.40;;;;;;;;;;5019067;28;20037;-73
2023/06/15 09:12:06;;;;;;;1.08;0.95;;;;;;;;;;5027481;28;20120;-73
2023/06/15 09:14:39;;;;;;;1.73;1.30;;;;;;;;;;5030942;28;20021;-73
2023/06/15 09:17:12;;;;;;;1.80;1.30;;;;;;;;;;5031128;28;20327;-74
2023/06/15 09:19:38;;;;;;;1.63;1.25;;;;;;;;;;5025409;28;20053;-73
2023/06/15 09:22:08;;;;;;;3.38;1.17;;;;;;;;;;5021066;28;20099;-74
2023/06/15 09:24:41;;;;;;;1.85;1.30;;;;;;;;;;5020933;28;20029;-72
2023/06/15 09:27:17;;;;;;;0.90;0.90;;;;;;;;;;5023555;28;20029;-73
2023/06/15 09:30:03;;;;;;;1.40;1.20;;;;;;;;;;5010346;28;20095;-73
2023/06/15 09:32:29;;;;;;;1.48;1.00;;;;;;;;;;5010625;28;20416;-73
2023/06/15 09:34:58;;;;;;;1.08;0.98;;;;;;;;;;5010527;28;20273;-73
2023/06/15 09:37:25;;;;;;;1.38;1.08;;;;;;;;;;5011011;28;20018;-73
2023/06/15 09:39:52;;;;;;;0.98;0.90;;;;;;;;;;5022564;28;20040;-73
2023/06/15 09:42:18;;;;;;;2.17;1.25;;;;;;;;;;5030586;28;20112;-73
2023/06/15 09:44:44;;;;;;;1.30;1.20;;;;;;;;;;5030496;28;20030;-73
2023/06/15 09:47:22;;;;;;;1.27;1.17;;;;;;;;;;5030185;28;20026;-73
2023/06/15 09:49:48;;;;;;;1.00;0.90;;;;;;;;;;5028538;28;20037;-73
2023/06/15 09:52:15;;;;;;;1.27;1.13;;;;;;;;;;5030118;28;20017;-73
2023/06/15 09:54:41;;;;;;;1.25;1.10;;;;;;;;;;5029535;28;20026;-73
2023/06/15 09:57:08;;;;;;;1.10;1.00;;;;;;;;;;5029991;28;20113;-73
2023/06/15 09:59:34;;;;;;;1.30;1.05;;;;;;;;;;5028152;28;20033;-72
2023/06/15 10:02:00;;;;;;;1.23;1.08;;;;;;;;;;5029741;28;20048;-73
2023/06/15 10:04:30;;;;;;;1.20;1.10;;;;;;;;;;5028418;28;20447;-73
2023/06/15 10:07:00;;;;;;;2.50;1.23;;;;;;;;;;5013085;28;20034;-73
2023/06/15 10:09:29;;;;;;;1.20;1.08;;;;;;;;;;5010195;28;20088;-73
2023/06/15 10:12:01;;;;;;;1.23;1.13;;;;;;;;;;5010076;28;20029;-73
2023/06/15 10:14:34;;;;;;;1.60;1.45;;;;;;;;;;5010165;28;20024;-73
2023/06/15 10:17:05;;;;;;;1.15;0.95;;;;;;;;;;5024054;28;20028;-73
2023/06/15 10:19:32;;;;;;;1.13;0.98;;;;;;;;;;5009771;28;20062;-74
2023/06/15 10:21:59;;;;;;;1.88;1.40;;;;;;;;;;5009650;28;20041;-73
2023/06/15 10:24:25;;;;;;;2.08;1.30;;;;;;;;;;5009915;28;20033;-73
2023/06/15 10:26:51;;;;;;;1.33;1.20;;;;;;;;;;5024982;28;20462;-74
2023/06/15 10:29:33;;;;;;;1.65;1.27;;;;;;;;;;5029647;28;20026;-73
2023/06/15 10:32:07;;;;;;;1.23;1.05;;;;;;;;;;5029205;28;20158;-73
2023/06/15 10:34:56;;;;;;;1.15;1.05;;;;;;;;;;5029092;28;20021;-74
2023/06/15 10:37:41;;;;;;;1.17;1.08;;;;;;;;;;5007309;28;20079;-73
2023/06/15 10:40:13;;;;;;;2.10;1.35;;;;;;;;;;5017062;28;20060;-73
2023/06/15 10:42:43;;;;;;;1.77;1.20;;;;;;;;;;5029261;28;20026;-73
2023/06/15 10:45:21;;;;;;;2.05;1.20;;;;;;;;;;5029389;28;20037;-73
2023/06/15 10:47:51;;;;;;;2.13;1.13;;;;;;;;;;5026872;28;20055;-73
2023/06/15 10:50:17;;;;;;;1.08;0.90;;;;;;;;;;5028983;28;20476;-74
2023/06/15 10:52:43;;;;;;;1.85;1.20;;;;;;;;;;5028829;28;20112;-72
2023/06/15 10:55:10;;;;;;;1.48;1.00;;;;;;;;;;5029208;28;20473;-73
2023/06/15 10:57:36;;;;;;;1.75;0.95;;;;;;;;;;5022069;28;20408;-74
2023/06/15 11:00:05;;;;;;;1.05;0.95;;;;;;;;;;5009264;28;20022;-73
2023/06/15 11:02:33;;;;;;;1.80;0.82;;;;;;;;;;5009001;28;20184;-73
2023/06/15 11:05:03;;;;;;;1.40;1.10;;;;;;;;;;5024077;28;20069;-73
2023/06/15 11:07:30;;;;;;;1.60;1.33;;;;;;;;;;5008783;28;20030;-73
2023/06/15 11:09:57;;;;;;;0.95;0.90;;;;;;;;;;5009052;28;20392;-73
2023/06/15 11:12:34;;;;;;;1.38;0.88;;;;;;;;;;5009154;28;20022;-74
2023/06/15 11:15:01;;;;;;;1.75;1.30;;;;;;;;;;5014185;28;20030;-74
2023/06/15 11:17:27;;;;;;;1.52;1.10;;;;;;;;;;5028858;28;20502;-73
2023/06/15 11:19:53;;;;;;;1.50;1.33;;;;;;;;;;5028117;28;20055;-74
2023/06/15 11:22:28;;;;;;;3.60;1.27;;;;;;;;;;5017203;28;20037;-74
2023/06/15 11:24:55;;;;;;;1.00;0.90;;;;;;;;;;5025804;28;20029;-73
2023/06/15 11:27:22;;;;;;;0.98;0.90;;;;;;;;;;5028493;28;20448;-73
2023/06/15 11:29:55;;;;;;;1.83;0.90;;;;;;;;;;5028083;28;20496;-73
2023/06/15 11:32:25;;;;;;;2.05;1.15;;;;;;;;;;5026330;28;20049;-73
2023/06/15 11:34:55;;;;;;;0.98;0.82;;;;;;;;;;5028006;28;20033;-74
2023/06/15 11:37:22;;;;;;;1.05;1.00;;;;;;;;;;5028658;28;20070;-73
2023/06/15 11:39:48;;;;;;;1.67;1.38;;;;;;;;;;5028676;28;20117;-73
2023/06/15 11:42:17;;;;;;;0.95;0.90;;;;;;;;;;5026098;28;20032;-73
2023/06/15 11:44:44;;;;;;;1.75;1.05;;;;;;;;;;5022020;28;20481;-73
2023/06/15 11:47:11;;;;;;;1.42;1.00;;;;;;;;;;5008347;28;20049;-73
2023/06/15 11:49:37;;;;;;;1.88;1.30;;;;;;;;;;5008629;28;20037;-73
2023/06/15 11:52:03;;;;;;;1.30;0.90;;;;;;;;;;5008368;28;20030;-73
2023/06/15 11:54:30;;;;;;;0.80;0.80;;;;;;;;;;5013474;28;20073;-73
2023/06/15 11:56:57;;;;;;;5.05;1.10;;;;;;;;;;5020838;28;20033;-73
2023/06/15 11:59:24;;;;;;;1.42;1.20;;;;;;;;;;5028109;28;20030;-72
2023/06/15 12:01:53;;;;;;;1.33;1.00;;;;;;;;;;5028097;28;20177;-73
2023/06/15 12:04:19;;;;;;;2.05;1.13;;;;;;;;;;5027023;28;20480;-72
2023/06/15 12:06:49;;;;;;;1.38;1.20;;;;;;;;;;5009765;28;20432;-73
2023/06/15 12:09:16;;;;;;;1.27;1.10;;;;;;;;;;5008076;28;20022;-74
2023/06/15 12:11:43;;;;;;;2.13;1.25;;;;;;;;;;5008588;28;20033;-72
2023/06/15 12:14:11;;;;;;;1.58;1.00;;;;;;;;;;5008206;28;20465;-73
2023/06/15 12:16:38;;;;;;;1.83;1.05;;;;;;;;;;5020797;28;20079;-73
2023/06/15 12:19:04;;;;;;;1.20;1.10;;;;;;;;;;5031777;28;20088;-73
2023/06/15 12:21:32;;;;;;;2.33;1.30;;;;;;;;;;5026506;28;20680;-73
2023/06/15 12:23:59;;;;;;;1.20;1.10;;;;;;;;;;5018431;28;20025;-73
2023/06/15 12:26:34;;;;;;;1.63;1.40;;;;;;;;;;5016511;28;20488;-73
2023/06/15 12:29:01;;;;;;;1.40;1.17;;;;;;;;;;5012079;28;20038;-73
2023/06/15 12:31:33;;;;;;;1.63;1.23;;;;;;;;;;5011470;28;20021;-73
2023/06/15 12:34:05;;;;;;;1.77;1.35;;;;;;;;;;5016357;28;20025;-73
2023/06/15 12:36:31;;;;;;;1.20;1.10;;;;;;;;;;5025349;28;20071;-73
2023/06/15 12:38:57;;;;;;;1.33;1.00;;;;;;;;;;5012764;28;20041;-74
2023/06/15 12:41:27;;;;;;;2.15;1.25;;;;;;;;;;5014001;28;20037;-73
2023/06/15 12:43:54;;;;;;;1.15;1.10;;;;;;;;;;5030999;28;20492;-73
2023/06/15 12:46:19;;;;;;;2.03;1.00;;;;;;;;;;5031495;28;20024;-73
2023/06/15 12:48:45;;;;;;;2.42;1.25;;;;;;;;;;5031593;28;20381;-73
2023/06/15 12:51:12;;;;;;;1.55;1.27;;;;;;;;;;5031259;28;20021;-73
2023/06/15 12:53:38;;;;;;;1.02;0.98;;;;;;;;;;5025722;28;20485;-73
2023/06/15 12:56:04;;;;;;;1.63;1.08;;;;;;;;;;5022209;28;20037;-74
2023/06/15 12:58:31;;;;;;;1.23;1.02;;;;;;;;;;5011462;28;20025;-72
2023/06/15 13:00:56;;;;;;;1.38;0.93;;;;;;;;;;5011176;28;20060;-72
2023/06/15 13:03:23;;;;;;;1.20;1.10;;;;;;;;;;5011304;28;20054;-72
2023/06/15 13:05:49;;;;;;;1.80;1.08;;;;;;;;;;5015082;28;20029;-71
2023/06/15 13:08:16;;;;;;;1.88;1.38;;;;;;;;;;5025872;28;20518;-72
2023/06/15 13:10:42;;;;;;;1.40;1.10;;;;;;;;;;5024310;28;20029;-72
2023/06/15 13:13:08;;;;;;;3.38;0.90;;;;;;;;;;5011075;28;20029;-72
2023/06/15 13:15:37;;;;;;;0.90;0.90;;;;;;;;;;5016744;28;20018;-72
2023/06/15 13:18:03;;;;;;;2.33;1.00;;;;;;;;;;5021284;28;20047;-72
2023/06/15 13:20:29;;;;;;;1.05;0.93;;;;;;;;;;5030525;28;20050;-72
2023/06/15 13:22:55;;;;;;;1.42;1.00;;;;;;;;;;5014182;28;20030;-72
2023/06/15 13:25:21;;;;;;;1.35;0.93;;;;;;;;;;5010883;28;20037;-73
2023/06/15 13:27:47;;;;;;;1.33;1.00;;;;;;;;;;5010408;28;20030;-72
2023/06/15 13:30:13;;;;;;;1.35;1.05;;;;;;;;;;5018711;28;20065;-72
2023/06/15 13:32:41;;;;;;;1.48;1.27;;;;;;;;;;5010841;28;20053;-72
2023/06/15 13:35:07;;;;;;;1.35;1.10;;;;;;;;;;5010441;28;20029;-72
2023/06/15 13:37:34;;;;;;;1.00;0.90;;;;;;;;;;5010975;28;20026;-72
2023/06/15 13:40:00;;;;;;;1.25;1.13;;;;;;;;;;5019336;28;20034;-71
2023/06/15 13:42:30;;;;;;;1.92;1.10;;;;;;;;;;5022981;28;20036;-73
2023/06/15 13:44:56;;;;;;;2.67;1.40;;;;;;;;;;5016825;28;20425;-72
2023/06/15 13:47:22;;;;;;;1.20;1.10;;;;;;;;;;5026863;28;20417;-72
2023/06/15 13:49:48;;;;;;;1.55;0.98;;;;;;;;;;5018436;28;20036;-71
2023/06/15 13:52:14;;;;;;;2.00;1.20;;;;;;;;;;5020404;28;20036;-72
2023/06/15 13:54:40;;;;;;;0.95;0.93;;;;;;;;;;5019587;28;20021;-71
2023/06/15 13:57:06;;;;;;;1.23;1.00;;;;;;;;;;5012035;28;20220;-72
2023/06/15 13:59:34;;;;;;;1.45;1.05;;;;;;;;;;5017721;28;20025;-72
2023/06/15 14:02:01;;;;;;;1.38;1.27;;;;;;;;;;5023864;28;20115;-72
2023/06/15 14:04:28;;;;;;;1.20;1.10;;;;;;;;;;5027521;28;20406;-72
2023/06/15 14:06:54;;;;;;;0.80;0.80;;;;;;;;;;5015348;28;20095;-73
2023/06/15 14:09:20;;;;;;;0.95;0.88;;;;;;;;;;5013422;28;20484;-72
2023/06/15 14:11:45;;;;;;;1.00;0.90;;;;;;;;;;5019938;28;20400;-72
2023/06/15 14:14:13;;;;;;;1.33;1.02;;;;;;;;;;5022730;28;20111;-71
2023/06/15 14:16:39;;;;;;;1.20;0.95;;;;;;;;;;5025236;28;20025;-72
2023/06/15 14:19:05;;;;;;;2.00;1.35;;;;;;;;;;5011384;28;20073;-72
2023/06/15 14:21:31;;;;;;;1.85;1.25;;;;;;;;;;5015772;28;20041;-75
2023/06/15 14:23:57;;;;;;;1.10;1.00;;;;;;;;;;5014699;28;20038;-72
2023/06/15 14:26:23;;;;;;;1.17;1.08;;;;;;;;;;5017270;28;20104;-75
2023/06/15 14:28:49;;;;;;;1.10;1.00;;;;;;;;;;5025313;28;20042;-74
2023/06/15 14:31:19;;;;;;;1.95;1.20;;;;;;;;;;5020174;28;20456;-75
2023/06/15 14:33:45;;;;;;;2.03;1.20;;;;;;;;;;5014628;28;20037;-75
2023/06/15 14:36:11;;;;;;;1.40;1.02;;;;;;;;;;5017627;28;20038;-73
2023/06/15 14:38:37;;;;;;;2.95;1.23;;;;;;;;;;5019006;28;20050;-74
2023/06/15 14:41:03;;;;;;;1.20;1.02;;;;;;;;;;5021731;28;20034;-74
2023/06/15 14:43:29;;;;;;;1.50;1.10;;;;;;;;;;5013615;28;20040;-74